sensor_id;sensor_type;location;lat;lon;timestamp;P1;durP1;ratioP1;P2;durP2;ratioP2
68653;SDS011;55636;51.108;13.622;2023-04-08T00:00:48;12.33;;;9.90;;
68653;SDS011;55636;51.108;13.622;2023-04-08T00:01:50;13.07;;;10.37;;
68653;SDS011;55636;51.108;13.622;2023-04-08T00:02:53;13.80;;;10.87;;
68653;SDS011;55636;51.108;13.622;2023-04-08T00:03:55;13.47;;;10.70;;
68653;SDS011;55636;51.108;13.622;2023-04-08T00:04:58;13.73;;;11.10;;
68653;SDS011;55636;51.108;13.622;2023-04-08T00:06:01;13.77;;;11.17;;
68653;SDS011;55636;51.108;13.622;2023-04-08T00:07:07;14.47;;;11.10;;
68653;SDS011;55636;51.108;13.622;2023-04-08T00:08:10;13.50;;;11.00;;
68653;SDS011;55636;51.108;13.622;2023-04-08T00:09:12;13.60;;;11.27;;
68653;SDS011;55636;51.108;13.622;2023-04-08T00:10:14;12.33;;;10.20;;
68653;SDS011;55636;51.108;13.622;2023-04-08T00:11:17;12.73;;;11.00;;
68653;SDS011;55636;51.108;13.622;2023-04-08T00:12:19;12.50;;;10.77;;
68653;SDS011;55636;51.108;13.622;2023-04-08T00:13:25;12.83;;;10.73;;
68653;SDS011;55636;51.108;13.622;2023-04-08T00:14:27;13.67;;;10.77;;
68653;SDS011;55636;51.108;13.622;2023-04-08T00:15:30;12.90;;;10.97;;
68653;SDS011;55636;51.108;13.622;2023-04-08T00:16:32;15.17;;;11.33;;
68653;SDS011;55636;51.108;13.622;2023-04-08T00:17:35;13.50;;;11.10;;
68653;SDS011;55636;51.108;13.622;2023-04-08T00:18:37;12.73;;;11.00;;
68653;SDS011;55636;51.108;13.622;2023-04-08T00:19:40;14.00;;;11.27;;
68653;SDS011;55636;51.108;13.622;2023-04-08T00:20:42;13.53;;;11.00;;
68653;SDS011;55636;51.108;13.622;2023-04-08T00:21:45;13.73;;;11.00;;
68653;SDS011;55636;51.108;13.622;2023-04-08T00:22:48;12.50;;;10.67;;
68653;SDS011;55636;51.108;13.622;2023-04-08T00:23:50;13.50;;;10.97;;
68653;SDS011;55636;51.108;13.622;2023-04-08T00:24:53;13.50;;;11.20;;
68653;SDS011;55636;51.108;13.622;2023-04-08T00:25:56;12.97;;;10.57;;
68653;SDS011;55636;51.108;13.622;2023-04-08T00:26:59;13.10;;;10.80;;
68653;SDS011;55636;51.108;13.622;2023-04-08T00:28:01;12.53;;;10.60;;
68653;SDS011;55636;51.108;13.622;2023-04-08T00:29:04;12.93;;;10.20;;
68653;SDS011;55636;51.108;13.622;2023-04-08T00:30:06;12.63;;;10.53;;
68653;SDS011;55636;51.108;13.622;2023-04-08T00:31:09;13.93;;;11.13;;
68653;SDS011;55636;51.108;13.622;2023-04-08T00:32:13;13.33;;;10.47;;
68653;SDS011;55636;51.108;13.622;2023-04-08T00:33:15;13.00;;;10.57;;
68653;SDS011;55636;51.108;13.622;2023-04-08T00:34:18;12.73;;;10.80;;
68653;SDS011;55636;51.108;13.622;2023-04-08T00:35:23;12.53;;;10.57;;
68653;SDS011;55636;51.108;13.622;2023-04-08T00:36:25;13.90;;;11.03;;
68653;SDS011;55636;51.108;13.622;2023-04-08T00:37:29;12.47;;;10.40;;
68653;SDS011;55636;51.108;13.622;2023-04-08T00:38:32;12.50;;;10.80;;
68653;SDS011;55636;51.108;13.622;2023-04-08T00:39:35;11.90;;;10.20;;
68653;SDS011;55636;51.108;13.622;2023-04-08T00:40:38;14.57;;;11.03;;
68653;SDS011;55636;51.108;13.622;2023-04-08T00:41:41;12.90;;;10.53;;
68653;SDS011;55636;51.108;13.622;2023-04-08T00:42:44;13.70;;;10.67;;
68653;SDS011;55636;51.108;13.622;2023-04-08T00:43:46;13.43;;;10.33;;
68653;SDS011;55636;51.108;13.622;2023-04-08T00:44:49;13.23;;;10.63;;
68653;SDS011;55636;51.108;13.622;2023-04-08T00:45:55;12.47;;;10.20;;
68653;SDS011;55636;51.108;13.622;2023-04-08T00:46:57;13.30;;;10.27;;
68653;SDS011;55636;51.108;13.622;2023-04-08T00:48:02;12.90;;;10.30;;
68653;SDS011;55636;51.108;13.622;2023-04-08T00:49:06;13.27;;;10.60;;
68653;SDS011;55636;51.108;13.622;2023-04-08T00:50:08;12.47;;;9.87;;
68653;SDS011;55636;51.108;13.622;2023-04-08T00:51:14;13.17;;;10.60;;
68653;SDS011;55636;51.108;13.622;2023-04-08T00:52:17;12.53;;;10.50;;
68653;SDS011;55636;51.108;13.622;2023-04-08T00:53:19;12.37;;;10.20;;
68653;SDS011;55636;51.108;13.622;2023-04-08T00:54:22;12.93;;;9.97;;
68653;SDS011;55636;51.108;13.622;2023-04-08T00:55:26;12.17;;;9.97;;
68653;SDS011;55636;51.108;13.622;2023-04-08T00:56:30;12.90;;;9.87;;
68653;SDS011;55636;51.108;13.622;2023-04-08T00:57:33;12.10;;;9.97;;
68653;SDS011;55636;51.108;13.622;2023-04-08T00:58:36;11.77;;;9.77;;
68653;SDS011;55636;51.108;13.622;2023-04-08T00:59:40;11.63;;;9.13;;
68653;SDS011;55636;51.108;13.622;2023-04-08T01:00:45;11.23;;;9.67;;
68653;SDS011;55636;51.108;13.622;2023-04-08T01:06:04;13.43;;;9.90;;
68653;SDS011;55636;51.108;13.622;2023-04-08T01:07:17;12.27;;;9.70;;
68653;SDS011;55636;51.108;13.622;2023-04-08T01:08:23;11.70;;;9.43;;
68653;SDS011;55636;51.108;13.622;2023-04-08T01:09:31;10.63;;;9.33;;
68653;SDS011;55636;51.108;13.622;2023-04-08T01:10:38;12.13;;;9.20;;
68653;SDS011;55636;51.108;13.622;2023-04-08T01:11:44;10.87;;;8.83;;
68653;SDS011;55636;51.108;13.622;2023-04-08T01:12:53;11.53;;;8.97;;
68653;SDS011;55636;51.108;13.622;2023-04-08T01:13:57;11.70;;;8.70;;
68653;SDS011;55636;51.108;13.622;2023-04-08T01:15:03;11.67;;;9.40;;
68653;SDS011;55636;51.108;13.622;2023-04-08T01:16:09;11.00;;;9.23;;
68653;SDS011;55636;51.108;13.622;2023-04-08T01:17:14;11.57;;;9.07;;
68653;SDS011;55636;51.108;13.622;2023-04-08T01:18:22;11.53;;;9.03;;
68653;SDS011;55636;51.108;13.622;2023-04-08T01:19:29;11.40;;;9.27;;
68653;SDS011;55636;51.108;13.622;2023-04-08T01:20:35;10.63;;;9.33;;
68653;SDS011;55636;51.108;13.622;2023-04-08T01:21:38;10.73;;;9.30;;
68653;SDS011;55636;51.108;13.622;2023-04-08T01:24:05;10.93;;;9.33;;
68653;SDS011;55636;51.108;13.622;2023-04-08T01:25:20;10.77;;;8.93;;
68653;SDS011;55636;51.108;13.622;2023-04-08T01:26:27;10.57;;;8.90;;
68653;SDS011;55636;51.108;13.622;2023-04-08T01:27:31;10.20;;;8.50;;
68653;SDS011;55636;51.108;13.622;2023-04-08T01:28:34;11.67;;;8.73;;
68653;SDS011;55636;51.108;13.622;2023-04-08T01:29:39;11.13;;;8.67;;
68653;SDS011;55636;51.108;13.622;2023-04-08T01:30:43;10.37;;;8.77;;
68653;SDS011;55636;51.108;13.622;2023-04-08T01:31:47;10.27;;;8.17;;
68653;SDS011;55636;51.108;13.622;2023-04-08T01:32:51;9.93;;;8.37;;
68653;SDS011;55636;51.108;13.622;2023-04-08T01:33:56;10.60;;;8.43;;
68653;SDS011;55636;51.108;13.622;2023-04-08T01:35:00;10.27;;;8.23;;
68653;SDS011;55636;51.108;13.622;2023-04-08T01:36:04;9.77;;;8.40;;
68653;SDS011;55636;51.108;13.622;2023-04-08T01:37:11;9.83;;;8.10;;
68653;SDS011;55636;51.108;13.622;2023-04-08T01:38:16;8.97;;;7.70;;
68653;SDS011;55636;51.108;13.622;2023-04-08T01:39:22;9.73;;;7.83;;
68653;SDS011;55636;51.108;13.622;2023-04-08T01:40:25;10.07;;;7.97;;
68653;SDS011;55636;51.108;13.622;2023-04-08T01:41:28;11.23;;;8.27;;
68653;SDS011;55636;51.108;13.622;2023-04-08T01:42:32;9.70;;;7.67;;
68653;SDS011;55636;51.108;13.622;2023-04-08T01:43:35;9.03;;;8.00;;
68653;SDS011;55636;51.108;13.622;2023-04-08T01:44:40;9.07;;;7.67;;
68653;SDS011;55636;51.108;13.622;2023-04-08T01:45:45;9.93;;;8.33;;
68653;SDS011;55636;51.108;13.622;2023-04-08T01:46:48;10.70;;;8.17;;
68653;SDS011;55636;51.108;13.622;2023-04-08T01:47:55;10.20;;;7.63;;
68653;SDS011;55636;51.108;13.622;2023-04-08T01:48:59;9.83;;;7.80;;
68653;SDS011;55636;51.108;13.622;2023-04-08T01:50:02;9.93;;;8.07;;
68653;SDS011;55636;51.108;13.622;2023-04-08T01:51:07;9.67;;;7.83;;
68653;SDS011;55636;51.108;13.622;2023-04-08T01:52:10;9.97;;;7.73;;
68653;SDS011;55636;51.108;13.622;2023-04-08T01:53:14;8.27;;;7.30;;
68653;SDS011;55636;51.108;13.622;2023-04-08T01:54:16;9.70;;;7.80;;
68653;SDS011;55636;51.108;13.622;2023-04-08T01:55:19;9.33;;;7.57;;
68653;SDS011;55636;51.108;13.622;2023-04-08T01:56:22;9.00;;;7.53;;
68653;SDS011;55636;51.108;13.622;2023-04-08T01:57:27;9.03;;;7.50;;
68653;SDS011;55636;51.108;13.622;2023-04-08T01:58:50;9.73;;;7.50;;
68653;SDS011;55636;51.108;13.622;2023-04-08T01:59:55;9.83;;;7.67;;
68653;SDS011;55636;51.108;13.622;2023-04-08T02:01:02;8.50;;;7.03;;
68653;SDS011;55636;51.108;13.622;2023-04-08T02:02:07;8.13;;;6.90;;
68653;SDS011;55636;51.108;13.622;2023-04-08T02:03:11;8.93;;;7.70;;
68653;SDS011;55636;51.108;13.622;2023-04-08T02:04:14;9.53;;;7.30;;
68653;SDS011;55636;51.108;13.622;2023-04-08T02:05:19;8.87;;;7.30;;
68653;SDS011;55636;51.108;13.622;2023-04-08T02:06:23;9.03;;;7.60;;
68653;SDS011;55636;51.108;13.622;2023-04-08T02:07:28;9.30;;;7.40;;
68653;SDS011;55636;51.108;13.622;2023-04-08T02:08:32;9.87;;;7.63;;
68653;SDS011;55636;51.108;13.622;2023-04-08T02:09:36;10.27;;;7.63;;
68653;SDS011;55636;51.108;13.622;2023-04-08T02:10:40;9.63;;;7.63;;
68653;SDS011;55636;51.108;13.622;2023-04-08T02:11:43;9.57;;;7.50;;
68653;SDS011;55636;51.108;13.622;2023-04-08T02:12:46;9.73;;;7.53;;
68653;SDS011;55636;51.108;13.622;2023-04-08T02:13:49;10.37;;;7.50;;
68653;SDS011;55636;51.108;13.622;2023-04-08T02:14:52;9.30;;;7.03;;
68653;SDS011;55636;51.108;13.622;2023-04-08T02:15:56;8.73;;;7.13;;
68653;SDS011;55636;51.108;13.622;2023-04-08T02:17:28;9.83;;;7.27;;
68653;SDS011;55636;51.108;13.622;2023-04-08T02:18:37;8.97;;;7.37;;
68653;SDS011;55636;51.108;13.622;2023-04-08T02:19:56;9.20;;;7.20;;
68653;SDS011;55636;51.108;13.622;2023-04-08T02:21:12;9.53;;;7.40;;
68653;SDS011;55636;51.108;13.622;2023-04-08T02:22:30;9.00;;;7.47;;
68653;SDS011;55636;51.108;13.622;2023-04-08T02:23:40;10.33;;;7.93;;
68653;SDS011;55636;51.108;13.622;2023-04-08T02:24:47;9.43;;;7.67;;
68653;SDS011;55636;51.108;13.622;2023-04-08T02:25:52;9.93;;;7.40;;
68653;SDS011;55636;51.108;13.622;2023-04-08T02:27:01;9.23;;;7.40;;
68653;SDS011;55636;51.108;13.622;2023-04-08T02:28:05;9.17;;;7.50;;
68653;SDS011;55636;51.108;13.622;2023-04-08T02:29:12;9.97;;;7.17;;
68653;SDS011;55636;51.108;13.622;2023-04-08T02:30:19;9.03;;;6.83;;
68653;SDS011;55636;51.108;13.622;2023-04-08T02:31:22;9.90;;;7.60;;
68653;SDS011;55636;51.108;13.622;2023-04-08T02:32:27;9.03;;;6.83;;
68653;SDS011;55636;51.108;13.622;2023-04-08T02:33:32;8.77;;;6.73;;
68653;SDS011;55636;51.108;13.622;2023-04-08T02:34:39;8.53;;;6.87;;
68653;SDS011;55636;51.108;13.622;2023-04-08T02:35:42;9.03;;;6.73;;
68653;SDS011;55636;51.108;13.622;2023-04-08T02:36:46;8.93;;;6.67;;
68653;SDS011;55636;51.108;13.622;2023-04-08T02:37:50;8.83;;;7.40;;
68653;SDS011;55636;51.108;13.622;2023-04-08T02:38:53;8.97;;;6.93;;
68653;SDS011;55636;51.108;13.622;2023-04-08T02:39:56;8.47;;;6.70;;
68653;SDS011;55636;51.108;13.622;2023-04-08T02:40:58;7.67;;;6.70;;
68653;SDS011;55636;51.108;13.622;2023-04-08T02:42:02;7.90;;;6.80;;
68653;SDS011;55636;51.108;13.622;2023-04-08T02:43:11;9.00;;;6.73;;
68653;SDS011;55636;51.108;13.622;2023-04-08T02:44:13;8.13;;;6.80;;
68653;SDS011;55636;51.108;13.622;2023-04-08T02:45:16;9.13;;;6.70;;
68653;SDS011;55636;51.108;13.622;2023-04-08T02:46:21;8.37;;;6.80;;
68653;SDS011;55636;51.108;13.622;2023-04-08T02:47:25;7.63;;;6.73;;
68653;SDS011;55636;51.108;13.622;2023-04-08T02:48:27;6.83;;;6.07;;
68653;SDS011;55636;51.108;13.622;2023-04-08T02:49:30;7.83;;;6.63;;
68653;SDS011;55636;51.108;13.622;2023-04-08T02:50:32;8.73;;;6.47;;
68653;SDS011;55636;51.108;13.622;2023-04-08T02:51:34;8.47;;;6.93;;
68653;SDS011;55636;51.108;13.622;2023-04-08T02:52:37;8.43;;;6.70;;
68653;SDS011;55636;51.108;13.622;2023-04-08T02:53:39;8.00;;;6.70;;
68653;SDS011;55636;51.108;13.622;2023-04-08T02:54:42;7.77;;;6.10;;
68653;SDS011;55636;51.108;13.622;2023-04-08T02:55:45;8.13;;;6.90;;
68653;SDS011;55636;51.108;13.622;2023-04-08T02:56:48;7.47;;;6.13;;
68653;SDS011;55636;51.108;13.622;2023-04-08T02:57:50;6.83;;;5.77;;
68653;SDS011;55636;51.108;13.622;2023-04-08T02:58:59;7.20;;;6.13;;
68653;SDS011;55636;51.108;13.622;2023-04-08T03:00:03;6.93;;;6.23;;
68653;SDS011;55636;51.108;13.622;2023-04-08T03:01:07;6.47;;;5.67;;
68653;SDS011;55636;51.108;13.622;2023-04-08T03:02:14;7.43;;;6.00;;
68653;SDS011;55636;51.108;13.622;2023-04-08T03:03:19;7.73;;;6.47;;
68653;SDS011;55636;51.108;13.622;2023-04-08T03:04:29;8.13;;;6.03;;
68653;SDS011;55636;51.108;13.622;2023-04-08T03:05:32;7.10;;;5.90;;
68653;SDS011;55636;51.108;13.622;2023-04-08T03:06:34;7.90;;;6.37;;
68653;SDS011;55636;51.108;13.622;2023-04-08T03:07:37;7.43;;;5.97;;
68653;SDS011;55636;51.108;13.622;2023-04-08T03:08:41;6.90;;;6.20;;
68653;SDS011;55636;51.108;13.622;2023-04-08T03:09:44;6.80;;;6.10;;
68653;SDS011;55636;51.108;13.622;2023-04-08T03:10:47;7.27;;;5.97;;
68653;SDS011;55636;51.108;13.622;2023-04-08T03:11:50;7.13;;;6.07;;
68653;SDS011;55636;51.108;13.622;2023-04-08T03:12:55;6.60;;;5.70;;
68653;SDS011;55636;51.108;13.622;2023-04-08T03:13:58;6.70;;;5.83;;
68653;SDS011;55636;51.108;13.622;2023-04-08T03:15:00;7.03;;;5.87;;
68653;SDS011;55636;51.108;13.622;2023-04-08T03:16:04;8.07;;;6.37;;
68653;SDS011;55636;51.108;13.622;2023-04-08T03:17:07;6.63;;;5.50;;
68653;SDS011;55636;51.108;13.622;2023-04-08T03:18:09;6.23;;;5.63;;
68653;SDS011;55636;51.108;13.622;2023-04-08T03:19:12;6.80;;;6.10;;
68653;SDS011;55636;51.108;13.622;2023-04-08T03:20:14;6.23;;;5.40;;
68653;SDS011;55636;51.108;13.622;2023-04-08T03:21:17;6.33;;;5.33;;
68653;SDS011;55636;51.108;13.622;2023-04-08T03:22:19;6.83;;;5.57;;
68653;SDS011;55636;51.108;13.622;2023-04-08T03:23:21;6.33;;;5.30;;
68653;SDS011;55636;51.108;13.622;2023-04-08T03:24:24;6.97;;;5.57;;
68653;SDS011;55636;51.108;13.622;2023-04-08T03:25:27;5.97;;;5.37;;
68653;SDS011;55636;51.108;13.622;2023-04-08T03:26:30;6.30;;;5.70;;
68653;SDS011;55636;51.108;13.622;2023-04-08T03:27:35;5.93;;;5.20;;
68653;SDS011;55636;51.108;13.622;2023-04-08T03:28:37;5.90;;;5.30;;
68653;SDS011;55636;51.108;13.622;2023-04-08T03:29:42;7.20;;;5.50;;
68653;SDS011;55636;51.108;13.622;2023-04-08T03:30:49;6.43;;;5.60;;
68653;SDS011;55636;51.108;13.622;2023-04-08T03:31:52;7.33;;;5.33;;
68653;SDS011;55636;51.108;13.622;2023-04-08T03:32:54;6.10;;;5.13;;
68653;SDS011;55636;51.108;13.622;2023-04-08T03:33:57;6.47;;;5.47;;
68653;SDS011;55636;51.108;13.622;2023-04-08T03:35:00;5.60;;;5.00;;
68653;SDS011;55636;51.108;13.622;2023-04-08T03:36:03;6.13;;;4.90;;
68653;SDS011;55636;51.108;13.622;2023-04-08T03:37:06;6.40;;;5.40;;
68653;SDS011;55636;51.108;13.622;2023-04-08T03:38:08;6.13;;;5.07;;
68653;SDS011;55636;51.108;13.622;2023-04-08T03:39:11;6.00;;;4.90;;
68653;SDS011;55636;51.108;13.622;2023-04-08T03:40:13;5.80;;;5.17;;
68653;SDS011;55636;51.108;13.622;2023-04-08T03:41:16;5.27;;;4.70;;
68653;SDS011;55636;51.108;13.622;2023-04-08T03:42:18;5.20;;;4.53;;
68653;SDS011;55636;51.108;13.622;2023-04-08T03:43:20;6.00;;;5.10;;
68653;SDS011;55636;51.108;13.622;2023-04-08T03:44:24;6.30;;;4.73;;
68653;SDS011;55636;51.108;13.622;2023-04-08T03:45:26;6.33;;;4.90;;
68653;SDS011;55636;51.108;13.622;2023-04-08T03:46:29;6.70;;;5.07;;
68653;SDS011;55636;51.108;13.622;2023-04-08T03:47:32;4.97;;;4.40;;
68653;SDS011;55636;51.108;13.622;2023-04-08T03:48:35;5.30;;;4.50;;
68653;SDS011;55636;51.108;13.622;2023-04-08T03:49:38;5.80;;;4.80;;
68653;SDS011;55636;51.108;13.622;2023-04-08T03:50:40;5.63;;;4.50;;
68653;SDS011;55636;51.108;13.622;2023-04-08T03:51:42;5.17;;;4.50;;
68653;SDS011;55636;51.108;13.622;2023-04-08T03:52:45;5.70;;;4.63;;
68653;SDS011;55636;51.108;13.622;2023-04-08T03:53:47;5.20;;;4.53;;
68653;SDS011;55636;51.108;13.622;2023-04-08T03:54:50;4.90;;;4.40;;
68653;SDS011;55636;51.108;13.622;2023-04-08T03:55:52;5.80;;;4.67;;
68653;SDS011;55636;51.108;13.622;2023-04-08T03:56:54;5.20;;;4.70;;
68653;SDS011;55636;51.108;13.622;2023-04-08T03:57:57;5.10;;;4.60;;
68653;SDS011;55636;51.108;13.622;2023-04-08T03:58:59;4.83;;;4.20;;
68653;SDS011;55636;51.108;13.622;2023-04-08T04:00:02;4.50;;;4.10;;
68653;SDS011;55636;51.108;13.622;2023-04-08T04:01:12;4.63;;;4.23;;
68653;SDS011;55636;51.108;13.622;2023-04-08T04:02:15;5.00;;;4.37;;
68653;SDS011;55636;51.108;13.622;2023-04-08T04:03:20;4.97;;;4.47;;
68653;SDS011;55636;51.108;13.622;2023-04-08T04:04:22;5.13;;;4.40;;
68653;SDS011;55636;51.108;13.622;2023-04-08T04:05:27;5.87;;;4.83;;
68653;SDS011;55636;51.108;13.622;2023-04-08T04:06:30;5.00;;;4.50;;
68653;SDS011;55636;51.108;13.622;2023-04-08T04:07:33;5.13;;;4.40;;
68653;SDS011;55636;51.108;13.622;2023-04-08T04:08:37;5.10;;;4.57;;
68653;SDS011;55636;51.108;13.622;2023-04-08T04:09:40;5.07;;;4.57;;
68653;SDS011;55636;51.108;13.622;2023-04-08T04:10:42;4.50;;;4.03;;
68653;SDS011;55636;51.108;13.622;2023-04-08T04:11:45;4.77;;;4.27;;
68653;SDS011;55636;51.108;13.622;2023-04-08T04:12:48;4.83;;;4.27;;
68653;SDS011;55636;51.108;13.622;2023-04-08T04:13:51;4.67;;;4.23;;
68653;SDS011;55636;51.108;13.622;2023-04-08T04:14:53;4.70;;;4.23;;
68653;SDS011;55636;51.108;13.622;2023-04-08T04:15:56;4.80;;;4.13;;
68653;SDS011;55636;51.108;13.622;2023-04-08T04:17:02;4.73;;;3.93;;
68653;SDS011;55636;51.108;13.622;2023-04-08T04:18:04;5.03;;;4.30;;
68653;SDS011;55636;51.108;13.622;2023-04-08T04:19:07;4.70;;;4.20;;
68653;SDS011;55636;51.108;13.622;2023-04-08T04:20:09;4.93;;;4.33;;
68653;SDS011;55636;51.108;13.622;2023-04-08T04:21:12;4.40;;;4.00;;
68653;SDS011;55636;51.108;13.622;2023-04-08T04:22:15;4.83;;;4.33;;
68653;SDS011;55636;51.108;13.622;2023-04-08T04:23:19;4.73;;;4.23;;
68653;SDS011;55636;51.108;13.622;2023-04-08T04:24:22;4.47;;;4.07;;
68653;SDS011;55636;51.108;13.622;2023-04-08T04:25:24;4.90;;;4.40;;
68653;SDS011;55636;51.108;13.622;2023-04-08T04:26:28;5.07;;;4.27;;
68653;SDS011;55636;51.108;13.622;2023-04-08T04:27:32;5.57;;;4.50;;
68653;SDS011;55636;51.108;13.622;2023-04-08T04:28:34;4.37;;;3.87;;
68653;SDS011;55636;51.108;13.622;2023-04-08T04:29:38;4.43;;;4.03;;
68653;SDS011;55636;51.108;13.622;2023-04-08T04:30:41;4.30;;;3.90;;
68653;SDS011;55636;51.108;13.622;2023-04-08T04:31:44;5.43;;;3.90;;
68653;SDS011;55636;51.108;13.622;2023-04-08T04:32:47;5.17;;;4.53;;
68653;SDS011;55636;51.108;13.622;2023-04-08T04:33:50;6.03;;;4.60;;
68653;SDS011;55636;51.108;13.622;2023-04-08T04:34:52;4.87;;;4.37;;
68653;SDS011;55636;51.108;13.622;2023-04-08T04:35:54;4.80;;;4.30;;
68653;SDS011;55636;51.108;13.622;2023-04-08T04:36:57;4.80;;;4.30;;
68653;SDS011;55636;51.108;13.622;2023-04-08T04:37:59;5.83;;;4.50;;
68653;SDS011;55636;51.108;13.622;2023-04-08T04:39:03;4.67;;;4.17;;
68653;SDS011;55636;51.108;13.622;2023-04-08T04:40:07;4.37;;;3.97;;
68653;SDS011;55636;51.108;13.622;2023-04-08T04:41:10;5.47;;;4.50;;
68653;SDS011;55636;51.108;13.622;2023-04-08T04:42:13;5.37;;;4.43;;
68653;SDS011;55636;51.108;13.622;2023-04-08T04:43:16;6.83;;;4.53;;
68653;SDS011;55636;51.108;13.622;2023-04-08T04:44:19;4.67;;;4.23;;
68653;SDS011;55636;51.108;13.622;2023-04-08T04:45:22;4.70;;;4.20;;
68653;SDS011;55636;51.108;13.622;2023-04-08T04:46:25;5.20;;;4.50;;
68653;SDS011;55636;51.108;13.622;2023-04-08T04:47:27;4.33;;;3.93;;
68653;SDS011;55636;51.108;13.622;2023-04-08T04:48:30;5.10;;;4.00;;
68653;SDS011;55636;51.108;13.622;2023-04-08T04:49:32;4.90;;;4.37;;
68653;SDS011;55636;51.108;13.622;2023-04-08T04:50:34;4.80;;;4.30;;
68653;SDS011;55636;51.108;13.622;2023-04-08T04:51:37;5.10;;;4.50;;
68653;SDS011;55636;51.108;13.622;2023-04-08T04:52:40;4.70;;;4.23;;
68653;SDS011;55636;51.108;13.622;2023-04-08T04:53:43;5.60;;;4.90;;
68653;SDS011;55636;51.108;13.622;2023-04-08T04:54:45;5.80;;;4.60;;
68653;SDS011;55636;51.108;13.622;2023-04-08T04:55:51;4.90;;;4.40;;
68653;SDS011;55636;51.108;13.622;2023-04-08T04:56:53;5.57;;;4.60;;
68653;SDS011;55636;51.108;13.622;2023-04-08T04:57:57;5.17;;;4.50;;
68653;SDS011;55636;51.108;13.622;2023-04-08T04:58:59;6.27;;;5.07;;
68653;SDS011;55636;51.108;13.622;2023-04-08T05:00:01;5.63;;;4.70;;
68653;SDS011;55636;51.108;13.622;2023-04-08T05:01:09;5.43;;;4.80;;
68653;SDS011;55636;51.108;13.622;2023-04-08T05:02:14;5.27;;;4.50;;
68653;SDS011;55636;51.108;13.622;2023-04-08T05:03:23;6.17;;;4.80;;
68653;SDS011;55636;51.108;13.622;2023-04-08T05:04:25;6.40;;;4.50;;
68653;SDS011;55636;51.108;13.622;2023-04-08T05:05:27;5.13;;;4.63;;
68653;SDS011;55636;51.108;13.622;2023-04-08T05:06:30;5.77;;;4.97;;
68653;SDS011;55636;51.108;13.622;2023-04-08T05:07:35;5.97;;;4.90;;
68653;SDS011;55636;51.108;13.622;2023-04-08T05:08:38;5.87;;;4.73;;
68653;SDS011;55636;51.108;13.622;2023-04-08T05:09:41;5.20;;;4.70;;
68653;SDS011;55636;51.108;13.622;2023-04-08T05:10:43;5.30;;;4.80;;
68653;SDS011;55636;51.108;13.622;2023-04-08T05:11:45;6.50;;;4.90;;
68653;SDS011;55636;51.108;13.622;2023-04-08T05:12:47;5.13;;;4.50;;
68653;SDS011;55636;51.108;13.622;2023-04-08T05:13:50;5.80;;;4.50;;
68653;SDS011;55636;51.108;13.622;2023-04-08T05:14:53;5.77;;;4.80;;
68653;SDS011;55636;51.108;13.622;2023-04-08T05:15:58;6.07;;;5.00;;
68653;SDS011;55636;51.108;13.622;2023-04-08T05:17:01;6.93;;;5.00;;
68653;SDS011;55636;51.108;13.622;2023-04-08T05:18:05;5.37;;;4.60;;
68653;SDS011;55636;51.108;13.622;2023-04-08T05:19:09;4.87;;;4.37;;
68653;SDS011;55636;51.108;13.622;2023-04-08T05:20:12;4.93;;;4.30;;
68653;SDS011;55636;51.108;13.622;2023-04-08T05:21:17;4.53;;;4.13;;
68653;SDS011;55636;51.108;13.622;2023-04-08T05:22:19;5.27;;;4.50;;
68653;SDS011;55636;51.108;13.622;2023-04-08T05:23:21;5.27;;;4.23;;
68653;SDS011;55636;51.108;13.622;2023-04-08T05:24:24;4.93;;;4.37;;
68653;SDS011;55636;51.108;13.622;2023-04-08T05:25:26;5.20;;;4.13;;
68653;SDS011;55636;51.108;13.622;2023-04-08T05:26:29;4.80;;;4.20;;
68653;SDS011;55636;51.108;13.622;2023-04-08T05:27:33;5.33;;;4.47;;
68653;SDS011;55636;51.108;13.622;2023-04-08T05:28:38;5.57;;;4.77;;
68653;SDS011;55636;51.108;13.622;2023-04-08T05:29:40;4.87;;;4.13;;
68653;SDS011;55636;51.108;13.622;2023-04-08T05:30:47;5.27;;;4.40;;
68653;SDS011;55636;51.108;13.622;2023-04-08T05:31:53;5.90;;;4.40;;
68653;SDS011;55636;51.108;13.622;2023-04-08T05:32:55;4.83;;;4.27;;
68653;SDS011;55636;51.108;13.622;2023-04-08T05:34:01;5.33;;;4.40;;
68653;SDS011;55636;51.108;13.622;2023-04-08T05:35:05;4.93;;;4.33;;
68653;SDS011;55636;51.108;13.622;2023-04-08T05:36:09;5.73;;;4.27;;
68653;SDS011;55636;51.108;13.622;2023-04-08T05:37:12;4.73;;;4.00;;
68653;SDS011;55636;51.108;13.622;2023-04-08T05:38:14;5.03;;;4.30;;
68653;SDS011;55636;51.108;13.622;2023-04-08T05:39:17;5.30;;;4.50;;
68653;SDS011;55636;51.108;13.622;2023-04-08T05:40:20;5.30;;;4.33;;
68653;SDS011;55636;51.108;13.622;2023-04-08T05:41:24;5.00;;;4.43;;
68653;SDS011;55636;51.108;13.622;2023-04-08T05:42:27;5.53;;;4.50;;
68653;SDS011;55636;51.108;13.622;2023-04-08T05:43:29;5.80;;;4.67;;
68653;SDS011;55636;51.108;13.622;2023-04-08T05:44:34;5.93;;;4.63;;
68653;SDS011;55636;51.108;13.622;2023-04-08T05:45:36;5.20;;;4.70;;
68653;SDS011;55636;51.108;13.622;2023-04-08T05:46:39;5.33;;;4.80;;
68653;SDS011;55636;51.108;13.622;2023-04-08T05:47:41;6.03;;;4.50;;
68653;SDS011;55636;51.108;13.622;2023-04-08T05:48:44;5.53;;;4.53;;
68653;SDS011;55636;51.108;13.622;2023-04-08T05:49:46;6.23;;;5.10;;
68653;SDS011;55636;51.108;13.622;2023-04-08T05:50:51;5.70;;;5.10;;
68653;SDS011;55636;51.108;13.622;2023-04-08T05:51:54;5.27;;;4.73;;
68653;SDS011;55636;51.108;13.622;2023-04-08T05:52:56;7.07;;;5.33;;
68653;SDS011;55636;51.108;13.622;2023-04-08T05:53:59;5.73;;;5.10;;
68653;SDS011;55636;51.108;13.622;2023-04-08T05:55:02;6.17;;;5.47;;
68653;SDS011;55636;51.108;13.622;2023-04-08T05:56:04;8.10;;;5.97;;
68653;SDS011;55636;51.108;13.622;2023-04-08T05:57:07;6.83;;;5.27;;
68653;SDS011;55636;51.108;13.622;2023-04-08T05:58:11;6.40;;;5.53;;
68653;SDS011;55636;51.108;13.622;2023-04-08T05:59:13;7.20;;;5.80;;
68653;SDS011;55636;51.108;13.622;2023-04-08T06:00:18;6.80;;;5.60;;
68653;SDS011;55636;51.108;13.622;2023-04-08T06:01:21;7.77;;;6.23;;
68653;SDS011;55636;51.108;13.622;2023-04-08T06:02:24;6.77;;;5.70;;
68653;SDS011;55636;51.108;13.622;2023-04-08T06:03:27;6.97;;;5.97;;
68653;SDS011;55636;51.108;13.622;2023-04-08T06:04:30;7.17;;;6.07;;
68653;SDS011;55636;51.108;13.622;2023-04-08T06:05:33;7.53;;;6.00;;
68653;SDS011;55636;51.108;13.622;2023-04-08T06:06:37;8.23;;;6.60;;
68653;SDS011;55636;51.108;13.622;2023-04-08T06:07:40;7.73;;;5.90;;
68653;SDS011;55636;51.108;13.622;2023-04-08T06:08:43;7.70;;;6.30;;
68653;SDS011;55636;51.108;13.622;2023-04-08T06:09:45;7.47;;;5.73;;
68653;SDS011;55636;51.108;13.622;2023-04-08T06:10:51;7.13;;;6.33;;
68653;SDS011;55636;51.108;13.622;2023-04-08T06:11:53;6.93;;;5.93;;
68653;SDS011;55636;51.108;13.622;2023-04-08T06:12:55;7.00;;;6.30;;
68653;SDS011;55636;51.108;13.622;2023-04-08T06:13:58;8.33;;;6.57;;
68653;SDS011;55636;51.108;13.622;2023-04-08T06:15:00;8.60;;;6.50;;
68653;SDS011;55636;51.108;13.622;2023-04-08T06:17:25;8.33;;;6.37;;
68653;SDS011;55636;51.108;13.622;2023-04-08T06:18:30;8.07;;;6.47;;
68653;SDS011;55636;51.108;13.622;2023-04-08T06:19:32;7.90;;;6.80;;
68653;SDS011;55636;51.108;13.622;2023-04-08T06:20:36;8.07;;;6.60;;
68653;SDS011;55636;51.108;13.622;2023-04-08T06:21:38;8.83;;;7.23;;
68653;SDS011;55636;51.108;13.622;2023-04-08T06:22:41;8.20;;;6.90;;
68653;SDS011;55636;51.108;13.622;2023-04-08T06:23:43;9.33;;;7.63;;